الصفحة الرئيسية
METAR-TAF:

METAR-TAF

مطار :

مطار ورززات

ورززات, المغرب

دائرة عرض: 30-56N, خط طول: 006-54W, ارتفاع: 1139 متر

مراقبة الطقس الحالي

تاريخ ووقت الإصدار 56 دقيقة قبل الساعة 11:00UTC
ريح 2 عقدةمن اتجاهات متغيرة
درجة الحرارة 15°درجة مئوية
الرطوبة 31%
ضغط 1016 hPa
الرؤية 10 كم أو أكثر
الغيوم لا تقل 1500 م ولا وجود لمزنة ركامية السحاب الأسود

METAR: GMMZ 201100Z VRB02KT CAVOK 15/M02 Q1016 NOSIG

زمن: 12:56 (11:56 UTC)

توقعات

تاريخ ووقت الإصدار 56 دقيقة قبل الساعة 11:00UTC
التوقعات صالحة من20 الساعة 12 UTC إلى 21 الساعة 18 UTC
ريح 5 عقدة من الغرب
الرؤية 10 كم أو أكثر
الغيوم لا تقل 1500 م ولا وجود لمزنة ركامية السحاب الأسود
مؤقت
من 20 الساعة 16 UTC إلى 20 الساعة 19 UTC
ريح 16 عقدة من الغرب
نظرية الاحتمالات 30%
من 20 الساعة 17 UTC إلى 20 الساعة 19 UTC
ريح 20 عقدة من الغرب/الشمال الغربي تتزايد حتى 32 عقدة

TAF: GMMZ 201100Z 2012/2118 26005KT CAVOK TEMPO 2016/2019 28016KT PROB30 2017/2019 30020G32KT

أرصاد الطقس والتوقعات من أكثر من 4000 مطار (تقارير الطقس للمطار METAR والتنبؤ بالطقس بالمطارTAF).

المحطات المتاحة هي النقط الصفراء والحمراء على الخريطة.

حرك المؤشر فوق النقطة لمعرفة اسم المحطة.

ثم انقر لمعرفة أرصاد وتوقعات الطقس.

لتغيير الخارطة: اضغط على الأزرار الخضراء مع رمز الصليب الأسود للتكبير. على الزر الأخضر مع شرطة للتصغير، أو على الأسهم الخضراء للخرائط المجاورة.


METAR-TAF: